Time;durP1;ratioP1;P1;durP2;ratioP2;P2;SDS_P1;SDS_P2;PMS_P1;PMS_P2;Temp;Humidity;BMP_temperature;BMP_pressure;BME280_temperature;BME280_humidity;BME280_pressure;Samples;Min_cycle;Max_cycle;Signal;HPM_P1;HPM_P2
2022/03/02 00:01:32;;;;;;;22.80;11.60;;;2.90;99.90;;;;;;5081217;28;20170;-77
2022/03/02 00:03:58;;;;;;;21.57;10.43;;;2.80;99.90;;;;;;5071266;28;20230;-77
2022/03/02 00:06:23;;;;;;;18.67;10.50;;;2.90;99.90;;;;;;5072006;28;20242;-77
2022/03/02 00:08:48;;;;;;;21.53;11.27;;;2.80;99.90;;;;;;5071361;28;20215;-78
2022/03/02 00:11:16;;;;;;;20.90;11.13;;;2.70;99.90;;;;;;5072235;28;20187;-77
2022/03/02 00:13:42;;;;;;;20.30;10.73;;;2.80;99.90;;;;;;5072563;28;20198;-76
2022/03/02 00:16:08;;;;;;;20.80;10.57;;;2.70;99.90;;;;;;5072203;28;20239;-76
2022/03/02 00:18:34;;;;;;;21.10;11.33;;;2.60;99.90;;;;;;5070052;28;20218;-77
2022/03/02 00:21:00;;;;;;;19.07;10.73;;;2.70;99.90;;;;;;5071595;28;20225;-77
2022/03/02 00:23:25;;;;;;;20.27;10.83;;;2.70;99.90;;;;;;5072049;28;20694;-75
2022/03/02 00:25:51;;;;;;;19.47;10.67;;;2.70;99.90;;;;;;5070966;28;20247;-77
2022/03/02 00:28:16;;;;;;;20.23;10.30;;;2.70;99.90;;;;;;5071259;28;20218;-77
2022/03/02 00:30:42;;;;;;;19.07;10.80;;;2.70;99.90;;;;;;5071623;28;20264;-76
2022/03/02 00:33:08;;;;;;;17.67;10.67;;;2.80;99.90;;;;;;5070486;28;20229;-76
2022/03/02 00:35:34;;;;;;;19.07;10.73;;;2.70;99.90;;;;;;5071564;28;20221;-76
2022/03/02 00:38:02;;;;;;;23.30;11.97;;;2.70;99.90;;;;;;5069579;28;20195;-76
2022/03/02 00:40:28;;;;;;;19.23;11.27;;;2.70;99.90;;;;;;5071538;28;20645;-77
2022/03/02 00:42:54;;;;;;;20.67;11.13;;;2.70;99.90;;;;;;5071377;28;20207;-76
2022/03/02 00:45:20;;;;;;;24.27;11.17;;;2.70;99.90;;;;;;5071595;28;20584;-77
2022/03/02 00:47:46;;;;;;;21.03;10.90;;;2.70;99.90;;;;;;5071004;28;20225;-76
2022/03/02 00:50:12;;;;;;;19.63;10.77;;;2.60;99.90;;;;;;5071001;28;20193;-76
2022/03/02 00:52:38;;;;;;;17.60;10.40;;;2.60;99.90;;;;;;5071708;28;20217;-76
2022/03/02 00:55:03;;;;;;;20.40;10.13;;;2.60;99.90;;;;;;5070156;28;20207;-76
2022/03/02 00:57:29;;;;;;;20.93;10.47;;;2.60;99.90;;;;;;5071302;28;20586;-76
2022/03/02 00:59:55;;;;;;;23.70;12.83;;;2.70;99.90;;;;;;5069391;28;20226;-76
2022/03/02 01:02:20;;;;;;;24.53;11.70;;;2.70;99.90;;;;;;5070013;28;20226;-76
2022/03/02 01:04:46;;;;;;;20.47;11.27;;;2.70;99.90;;;;;;5070419;28;20178;-76
2022/03/02 01:07:11;;;;;;;18.47;10.77;;;2.70;99.90;;;;;;5071405;28;20210;-77
2022/03/02 01:09:37;;;;;;;19.10;10.53;;;2.60;99.90;;;;;;5061573;28;20321;-76
2022/03/02 01:12:03;;;;;;;21.70;11.50;;;2.70;99.90;;;;;;5071177;28;20210;-76
2022/03/02 01:14:28;;;;;;;22.50;11.63;;;2.70;99.90;;;;;;5070135;28;20209;-76
2022/03/02 01:16:54;;;;;;;17.60;11.33;;;2.70;99.90;;;;;;5071718;28;20166;-76
2022/03/02 01:19:19;;;;;;;21.80;13.43;;;2.70;99.90;;;;;;5074238;28;20410;-76
2022/03/02 01:21:45;;;;;;;19.87;11.73;;;2.70;99.90;;;;;;5076313;28;20209;-76
2022/03/02 01:24:10;;;;;;;21.27;12.23;;;2.70;99.90;;;;;;5077814;28;20630;-76
2022/03/02 01:26:36;;;;;;;21.23;11.10;;;2.60;99.90;;;;;;5077519;28;20251;-76
2022/03/02 01:29:04;;;;;;;19.10;11.43;;;2.70;99.90;;;;;;5076868;28;20219;-76
2022/03/02 01:31:29;;;;;;;24.33;11.53;;;2.70;99.90;;;;;;5078065;28;20178;-76
2022/03/02 01:33:55;;;;;;;19.03;10.60;;;2.70;99.90;;;;;;5076543;28;20221;-76
2022/03/02 01:36:21;;;;;;;20.73;11.43;;;2.70;99.90;;;;;;5081836;28;20587;-76
2022/03/02 01:38:47;;;;;;;21.40;10.70;;;2.60;99.90;;;;;;5082055;28;20709;-75
2022/03/02 01:41:17;;;;;;;22.60;11.80;;;2.60;99.90;;;;;;5082895;28;20190;-72
2022/03/02 01:43:43;;;;;;;25.57;12.20;;;2.60;99.90;;;;;;5081458;28;20713;-76
2022/03/02 01:46:09;;;;;;;24.03;11.47;;;2.60;99.90;;;;;;5080932;28;20228;-76
2022/03/02 01:48:34;;;;;;;25.37;12.73;;;2.60;99.90;;;;;;5082836;28;20233;-76
2022/03/02 01:51:00;;;;;;;20.33;10.90;;;2.60;99.90;;;;;;5085819;28;20235;-76
2022/03/02 01:53:26;;;;;;;26.37;12.67;;;2.60;99.90;;;;;;5083280;28;20598;-76
2022/03/02 01:55:54;;;;;;;20.73;11.97;;;2.60;99.90;;;;;;5082503;28;20526;-77
2022/03/02 01:58:20;;;;;;;25.07;12.87;;;2.70;99.90;;;;;;5083233;28;20744;-76
2022/03/02 02:00:46;;;;;;;21.30;11.03;;;2.70;99.90;;;;;;5073192;28;20209;-77
2022/03/02 02:03:11;;;;;;;19.23;12.07;;;2.60;99.90;;;;;;5079111;28;20740;-76
2022/03/02 02:05:37;;;;;;;19.47;11.73;;;2.60;99.90;;;;;;5077637;28;20217;-76
2022/03/02 02:08:02;;;;;;;20.47;11.93;;;2.70;99.90;;;;;;5090685;22;20210;-72
2022/03/02 02:10:28;;;;;;;20.70;11.53;;;2.70;99.90;;;;;;5059135;28;20186;-73
2022/03/02 02:12:53;;;;;;;21.33;13.37;;;2.50;99.90;;;;;;5076642;28;20215;-73
2022/03/02 02:15:21;;;;;;;22.57;12.40;;;2.60;99.90;;;;;;5076783;28;20220;-73
2022/03/02 02:17:47;;;;;;;22.33;12.33;;;2.60;99.90;;;;;;5076417;28;20207;-74
2022/03/02 02:20:13;;;;;;;21.67;11.20;;;2.70;99.90;;;;;;5058269;28;20181;-74
2022/03/02 02:22:44;;;;;;;27.67;13.40;;;2.60;99.90;;;;;;5077317;28;20705;-73
2022/03/02 02:25:10;;;;;;;24.33;12.17;;;2.50;99.90;;;;;;5076674;28;20221;-73
2022/03/02 02:27:37;;;;;;;22.10;12.03;;;2.60;99.90;;;;;;5058398;28;20686;-73
2022/03/02 02:30:04;;;;;;;23.70;12.17;;;2.70;99.90;;;;;;5055480;28;20684;-73
2022/03/02 02:32:30;;;;;;;22.80;12.40;;;2.60;99.90;;;;;;5055253;28;20222;-73
2022/03/02 02:34:57;;;;;;;25.90;12.50;;;2.50;99.90;;;;;;5073782;28;20552;-73
2022/03/02 02:37:26;;;;;;;23.93;13.13;;;2.40;99.90;;;;;;5073298;28;20760;-73
2022/03/02 02:40:00;;;;;;;27.37;12.97;;;2.40;99.90;;;;;;5053866;28;20213;-73
2022/03/02 02:42:27;;;;;;;27.47;13.47;;;2.40;99.90;;;;;;5073137;28;20813;-72
2022/03/02 02:44:54;;;;;;;26.50;13.10;;;2.40;99.90;;;;;;5073215;28;20222;-73
2022/03/02 02:47:20;;;;;;;29.10;13.70;;;2.40;99.90;;;;;;5073151;28;20737;-73
2022/03/02 02:49:45;;;;;;;26.37;12.90;;;2.40;99.90;;;;;;5054787;28;20293;-73
2022/03/02 02:52:11;;;;;;;23.43;13.30;;;2.40;99.90;;;;;;5073095;28;20216;-73
2022/03/02 02:54:36;;;;;;;23.07;12.93;;;2.50;99.90;;;;;;5072938;28;20214;-73
2022/03/02 02:57:04;;;;;;;20.73;11.90;;;2.50;99.90;;;;;;5055005;28;20675;-73
2022/03/02 02:59:30;;;;;;;21.63;12.57;;;2.40;99.90;;;;;;5054146;28;20231;-73
2022/03/02 03:01:55;;;;;;;23.47;13.83;;;2.30;99.90;;;;;;5073304;28;20175;-73
2022/03/02 03:04:21;;;;;;;24.00;12.87;;;2.20;99.90;;;;;;5072671;28;20214;-72
2022/03/02 03:06:46;;;;;;;22.83;13.03;;;2.20;99.90;;;;;;5072803;28;20220;-73
2022/03/02 03:09:12;;;;;;;25.27;13.03;;;2.30;99.90;;;;;;5053471;28;20224;-72
2022/03/02 03:11:39;;;;;;;31.43;13.13;;;2.20;99.90;;;;;;5072618;28;20289;-72
2022/03/02 03:14:13;;;;;;;29.43;13.67;;;2.20;99.90;;;;;;5054729;28;20283;-73
2022/03/02 03:16:42;;;;;;;23.63;13.30;;;2.10;99.90;;;;;;5073000;28;20259;-72
2022/03/02 03:19:08;;;;;;;20.60;13.20;;;2.00;99.90;;;;;;5071677;28;20224;-72
2022/03/02 03:21:33;;;;;;;25.87;14.13;;;2.00;99.90;;;;;;5072365;28;20199;-72
2022/03/02 03:23:59;;;;;;;27.87;14.20;;;2.10;99.90;;;;;;5072574;28;20740;-73
2022/03/02 03:26:25;;;;;;;24.13;12.47;;;2.00;99.90;;;;;;5054430;28;20211;-72
2022/03/02 03:28:51;;;;;;;26.17;13.20;;;2.10;99.90;;;;;;5072256;28;20672;-72
2022/03/02 03:31:17;;;;;;;22.57;13.00;;;2.10;99.90;;;;;;5072124;28;20450;-72
2022/03/02 03:33:42;;;;;;;22.13;12.87;;;2.20;99.90;;;;;;5072422;28;20213;-73
2022/03/02 03:36:07;;;;;;;23.77;12.43;;;2.20;99.90;;;;;;5054123;28;20232;-72
2022/03/02 03:38:33;;;;;;;24.07;12.93;;;2.30;99.90;;;;;;5071449;28;20207;-72
2022/03/02 03:40:59;;;;;;;22.27;13.23;;;2.30;99.90;;;;;;5053881;28;20182;-73
2022/03/02 03:43:25;;;;;;;24.47;13.57;;;2.30;99.90;;;;;;5072383;28;20586;-74
2022/03/02 03:45:51;;;;;;;27.93;14.93;;;2.30;99.90;;;;;;5071990;28;20219;-73
2022/03/02 03:48:17;;;;;;;25.27;13.43;;;2.30;99.90;;;;;;5071275;28;20214;-73
2022/03/02 03:50:44;;;;;;;24.90;13.57;;;2.40;99.90;;;;;;5050597;28;20210;-73
2022/03/02 03:53:10;;;;;;;20.57;12.77;;;2.30;99.90;;;;;;5042247;28;20200;-73
2022/03/02 03:55:35;;;;;;;24.17;13.50;;;2.20;99.90;;;;;;5052219;28;20180;-73
2022/03/02 03:58:01;;;;;;;23.53;13.43;;;2.20;99.90;;;;;;5050898;28;20200;-72
2022/03/02 04:00:26;;;;;;;23.63;13.40;;;2.20;99.90;;;;;;5051275;28;20234;-72
2022/03/02 04:02:52;;;;;;;25.47;13.07;;;2.20;99.90;;;;;;5033801;28;20200;-73
2022/03/02 04:05:18;;;;;;;24.40;13.63;;;2.30;99.90;;;;;;5051577;28;20189;-73
2022/03/02 04:07:44;;;;;;;21.30;13.03;;;2.20;99.90;;;;;;5051441;28;20538;-72
2022/03/02 04:10:10;;;;;;;24.00;12.47;;;2.20;99.90;;;;;;5051036;28;20203;-72
2022/03/02 04:12:36;;;;;;;26.17;14.23;;;2.20;99.90;;;;;;5051176;28;20242;-73
2022/03/02 04:15:04;;;;;;;26.73;13.80;;;2.20;99.90;;;;;;5051409;28;20199;-73
2022/03/02 04:17:30;;;;;;;22.07;13.33;;;2.30;99.90;;;;;;5051067;28;20285;-73
2022/03/02 04:19:56;;;;;;;25.83;12.73;;;2.20;99.90;;;;;;5033067;28;20283;-73
2022/03/02 04:22:21;;;;;;;23.73;13.63;;;2.20;99.90;;;;;;5044309;28;20581;-72
2022/03/02 04:24:47;;;;;;;26.90;13.70;;;2.20;99.90;;;;;;5033492;28;20215;-72
2022/03/02 04:27:13;;;;;;;28.10;15.10;;;2.20;99.90;;;;;;5051283;28;20253;-73
2022/03/02 04:29:39;;;;;;;26.43;14.20;;;2.10;99.90;;;;;;5032384;28;20208;-73
2022/03/02 04:32:05;;;;;;;25.97;13.77;;;2.10;99.90;;;;;;5050895;28;20200;-73
2022/03/02 04:34:30;;;;;;;30.63;17.60;;;1.90;99.90;;;;;;5050162;28;20403;-70
2022/03/02 04:36:56;;;;;;;26.57;14.90;;;1.90;99.90;;;;;;5050980;28;20196;-73
2022/03/02 04:39:21;;;;;;;24.63;13.73;;;1.80;99.90;;;;;;5050021;28;20218;-71
2022/03/02 04:41:47;;;;;;;26.57;14.37;;;1.80;99.90;;;;;;5050928;28;20204;-73
2022/03/02 04:44:12;;;;;;;27.13;13.67;;;1.80;99.90;;;;;;5032989;28;20649;-73
2022/03/02 04:46:38;;;;;;;25.13;13.80;;;1.90;99.90;;;;;;5051981;28;20214;-73
2022/03/02 04:49:10;;;;;;;26.40;13.93;;;2.00;99.90;;;;;;5033827;28;20206;-73
2022/03/02 04:51:37;;;;;;;27.93;14.63;;;1.90;99.90;;;;;;5036707;28;20203;-73
2022/03/02 04:54:03;;;;;;;27.13;14.53;;;1.90;99.90;;;;;;5038599;28;20244;-73
2022/03/02 04:56:28;;;;;;;26.73;15.83;;;1.90;99.90;;;;;;5051042;28;20291;-73
2022/03/02 04:58:54;;;;;;;25.80;13.60;;;1.80;99.90;;;;;;5051170;28;20256;-73
2022/03/02 05:01:20;;;;;;;22.80;13.27;;;1.80;99.90;;;;;;5050925;28;20217;-73
2022/03/02 05:03:45;;;;;;;25.57;14.47;;;1.70;99.90;;;;;;5051075;28;20205;-73
2022/03/02 05:06:10;;;;;;;25.40;14.17;;;1.70;99.90;;;;;;5050774;28;20203;-73
2022/03/02 05:08:36;;;;;;;30.27;14.60;;;1.70;99.90;;;;;;5031866;28;20220;-73
2022/03/02 05:11:01;;;;;;;24.63;13.93;;;1.70;99.90;;;;;;5050466;28;20190;-73
2022/03/02 05:13:27;;;;;;;23.97;13.87;;;1.60;99.90;;;;;;5032998;28;20291;-73
2022/03/02 05:15:52;;;;;;;27.50;14.33;;;1.70;99.90;;;;;;5050525;28;20200;-73
2022/03/02 05:18:18;;;;;;;25.17;13.93;;;1.80;99.90;;;;;;5031939;28;20306;-73
2022/03/02 05:20:43;;;;;;;25.57;13.73;;;1.80;99.90;;;;;;5050384;28;20199;-73
2022/03/02 05:23:09;;;;;;;27.03;15.27;;;1.80;99.90;;;;;;5043565;28;20269;-73
2022/03/02 05:25:34;;;;;;;26.50;14.97;;;1.80;99.90;;;;;;5050701;28;20931;-73
2022/03/02 05:28:00;;;;;;;26.20;14.40;;;1.80;99.90;;;;;;5031810;28;20214;-73
2022/03/02 05:30:25;;;;;;;29.33;15.13;;;1.80;99.90;;;;;;5050307;28;20266;-73
2022/03/02 05:32:51;;;;;;;31.07;15.33;;;1.90;99.90;;;;;;5050091;28;20215;-73
2022/03/02 05:35:16;;;;;;;30.97;16.60;;;1.90;99.90;;;;;;5050316;28;20193;-73
2022/03/02 05:37:42;;;;;;;28.43;15.63;;;2.00;99.90;;;;;;5032722;28;20168;-74
2022/03/02 05:40:10;;;;;;;29.80;16.13;;;2.10;99.90;;;;;;5049433;28;20214;-74
2022/03/02 05:42:35;;;;;;;31.17;14.77;;;2.00;99.90;;;;;;5031939;28;20728;-73
2022/03/02 05:45:01;;;;;;;28.37;15.03;;;2.00;99.90;;;;;;5050103;28;20209;-73
2022/03/02 05:47:26;;;;;;;34.20;16.60;;;2.00;99.90;;;;;;5032211;28;20237;-73
2022/03/02 05:49:51;;;;;;;29.33;16.70;;;2.00;99.90;;;;;;5049952;28;20690;-73
2022/03/02 05:52:18;;;;;;;25.83;16.07;;;2.10;99.90;;;;;;5051324;28;20234;-73
2022/03/02 05:54:43;;;;;;;31.20;15.97;;;2.10;99.90;;;;;;5032326;28;20217;-73
2022/03/02 05:57:09;;;;;;;33.80;16.47;;;2.20;99.90;;;;;;5050302;28;20237;-73
2022/03/02 05:59:34;;;;;;;31.23;15.97;;;2.30;99.90;;;;;;5049338;28;20213;-73
2022/03/02 06:02:00;;;;;;;31.33;16.47;;;2.30;99.90;;;;;;5050038;28;20181;-72
2022/03/02 06:04:25;;;;;;;31.30;15.53;;;2.40;99.90;;;;;;5032957;28;20245;-73
2022/03/02 06:06:51;;;;;;;28.37;16.27;;;2.30;99.90;;;;;;5035832;28;20283;-73
2022/03/02 06:09:16;;;;;;;33.67;17.23;;;2.30;99.90;;;;;;5069710;28;20637;-73
2022/03/02 06:11:43;;;;;;;33.77;17.47;;;2.30;99.90;;;;;;5073704;28;20712;-73
2022/03/02 06:14:09;;;;;;;28.43;16.87;;;2.30;99.90;;;;;;5073880;28;20228;-74
2022/03/02 06:16:35;;;;;;;32.37;16.80;;;2.40;99.90;;;;;;5055985;28;20185;-74
2022/03/02 06:19:02;;;;;;;35.40;19.20;;;2.40;99.90;;;;;;5055081;28;20209;-73
2022/03/02 06:21:30;;;;;;;31.70;18.70;;;2.40;99.90;;;;;;5073533;28;20279;-73
2022/03/02 06:23:56;;;;;;;38.47;19.33;;;2.40;99.90;;;;;;5073762;28;20212;-73
2022/03/02 06:26:23;;;;;;;30.63;17.43;;;2.40;99.90;;;;;;5073322;28;20206;-73
2022/03/02 06:28:49;;;;;;;31.33;17.73;;;2.50;99.90;;;;;;5055531;28;20209;-73
2022/03/02 06:31:15;;;;;;;35.63;17.83;;;2.50;99.90;;;;;;5073620;28;20202;-73
2022/03/02 06:33:41;;;;;;;34.93;18.30;;;2.50;99.90;;;;;;5073428;28;20303;-73
2022/03/02 06:36:07;;;;;;;32.27;18.57;;;2.50;99.90;;;;;;5073445;28;20243;-73
2022/03/02 06:38:33;;;;;;;29.77;17.00;;;2.50;99.90;;;;;;5054224;28;20219;-74
2022/03/02 06:41:04;;;;;;;36.37;17.90;;;2.50;99.90;;;;;;5074146;28;20188;-73
2022/03/02 06:43:38;;;;;;;30.63;17.43;;;2.50;99.90;;;;;;5073705;28;20255;-74
2022/03/02 06:46:11;;;;;;;31.57;17.27;;;2.40;99.90;;;;;;5073203;28;20234;-73
2022/03/02 06:48:53;;;;;;;37.63;19.43;;;2.40;99.90;;;;;;5054370;28;20209;-74
2022/03/02 06:51:24;;;;;;;30.57;16.63;;;2.40;99.90;;;;;;5073064;28;20209;-73
2022/03/02 06:53:50;;;;;;;34.43;18.33;;;2.60;99.90;;;;;;5055459;28;20243;-74
2022/03/02 06:56:19;;;;;;;35.20;18.47;;;2.60;99.90;;;;;;5073102;28;20179;-74
2022/03/02 06:58:48;;;;;;;33.00;17.73;;;2.70;99.90;;;;;;5072603;28;20269;-74
2022/03/02 07:01:27;;;;;;;33.20;18.90;;;2.90;99.90;;;;;;5072670;28;20684;-73
2022/03/02 07:03:57;;;;;;;32.00;17.53;;;2.80;99.90;;;;;;5073084;28;20276;-73
2022/03/02 07:06:24;;;;;;;34.00;19.17;;;3.00;99.90;;;;;;5072673;28;20347;-73
2022/03/02 07:08:49;;;;;;;31.37;18.13;;;2.90;99.90;;;;;;5053562;28;20240;-74
2022/03/02 07:11:16;;;;;;;35.37;18.33;;;2.90;99.90;;;;;;5054657;28;20267;-74
2022/03/02 07:13:44;;;;;;;34.33;17.97;;;3.00;99.90;;;;;;5070106;28;20204;-74
2022/03/02 07:16:16;;;;;;;42.27;20.03;;;3.10;99.90;;;;;;5067051;28;20276;-74
2022/03/02 07:18:43;;;;;;;36.63;18.50;;;3.10;99.90;;;;;;5071871;28;20214;-74
2022/03/02 07:21:14;;;;;;;37.73;18.10;;;3.00;99.90;;;;;;5072650;28;20203;-74
2022/03/02 07:23:54;;;;;;;35.27;17.90;;;3.00;99.90;;;;;;5054808;28;20883;-74
2022/03/02 07:26:22;;;;;;;32.63;16.93;;;2.90;99.90;;;;;;5072490;28;20211;-74
2022/03/02 07:28:48;;;;;;;36.00;17.93;;;2.90;99.90;;;;;;5054618;28;20582;-73
2022/03/02 07:31:14;;;;;;;33.03;17.50;;;3.00;99.90;;;;;;5072556;28;20232;-73
2022/03/02 07:33:42;;;;;;;37.67;18.10;;;3.10;99.90;;;;;;5072211;28;20591;-73
2022/03/02 07:36:09;;;;;;;34.73;18.57;;;3.20;99.90;;;;;;5054635;28;20717;-74
2022/03/02 07:38:35;;;;;;;33.27;18.93;;;3.20;99.90;;;;;;5071440;28;20218;-74
2022/03/02 07:41:05;;;;;;;34.33;17.70;;;3.30;99.90;;;;;;5055398;28;20179;-74
2022/03/02 07:43:32;;;;;;;33.03;18.67;;;3.30;99.90;;;;;;5055132;28;20664;-73
2022/03/02 07:45:57;;;;;;;37.80;19.27;;;3.60;99.90;;;;;;5054956;28;20204;-73
2022/03/02 07:48:23;;;;;;;37.63;20.57;;;3.50;99.90;;;;;;5071486;28;20785;-74
2022/03/02 07:50:49;;;;;;;41.40;19.80;;;3.70;99.90;;;;;;5072399;28;20252;-73
2022/03/02 07:53:17;;;;;;;35.33;19.77;;;3.70;99.90;;;;;;5054349;28;20683;-73
2022/03/02 07:55:44;;;;;;;37.10;18.73;;;3.80;99.90;;;;;;5072269;28;20185;-73
2022/03/02 07:58:10;;;;;;;36.50;20.20;;;3.90;99.90;;;;;;5053073;28;20218;-73
2022/03/02 08:00:36;;;;;;;35.70;18.03;;;3.90;99.90;;;;;;5071507;28;20246;-73
2022/03/02 08:03:02;;;;;;;32.83;18.97;;;4.10;99.90;;;;;;5071655;28;20701;-73
2022/03/02 08:05:28;;;;;;;39.83;20.27;;;4.80;99.90;;;;;;5053556;28;20203;-74
2022/03/02 08:07:54;;;;;;;36.40;18.53;;;5.50;99.90;;;;;;5052921;28;20178;-74
2022/03/02 08:10:20;;;;;;;36.60;20.13;;;5.60;99.90;;;;;;5073626;22;20609;-76
2022/03/02 08:12:46;;;;;;;35.33;19.10;;;6.00;99.90;;;;;;5053043;28;20214;-77
2022/03/02 08:15:12;;;;;;;36.13;18.67;;;6.00;99.90;;;;;;5061215;28;20212;-77
2022/03/02 08:17:37;;;;;;;34.37;18.17;;;6.80;99.90;;;;;;5046779;28;20201;-76
2022/03/02 08:20:05;;;;;;;33.27;18.67;;;7.20;99.90;;;;;;5047355;28;20301;-76
2022/03/02 08:22:31;;;;;;;31.73;18.97;;;7.30;99.90;;;;;;5041270;28;20652;-77
2022/03/02 08:25:10;;;;;;;31.33;18.20;;;8.50;99.90;;;;;;5038006;28;20583;-77
2022/03/02 08:27:41;;;;;;;29.67;18.13;;;9.10;99.90;;;;;;5047215;28;20664;-76
2022/03/02 08:30:08;;;;;;;35.50;19.57;;;9.00;99.90;;;;;;5044664;28;20285;-77
2022/03/02 08:32:41;;;;;;;33.97;19.13;;;9.30;99.90;;;;;;5041505;28;20215;-77
2022/03/02 08:35:07;;;;;;;35.30;19.80;;;9.30;99.90;;;;;;5045188;28;20615;-77
2022/03/02 08:37:34;;;;;;;35.30;20.40;;;9.50;99.90;;;;;;5041508;28;20184;-77
2022/03/02 08:40:00;;;;;;;33.40;18.27;;;9.50;99.90;;;;;;5043701;28;20211;-77
2022/03/02 08:42:26;;;;;;;34.13;20.53;;;9.20;99.90;;;;;;5043340;28;20794;-77
2022/03/02 08:44:54;;;;;;;38.47;21.43;;;10.00;99.90;;;;;;5037500;28;20200;-77
2022/03/02 08:47:22;;;;;;;30.87;19.73;;;10.80;99.90;;;;;;5040020;28;21264;-77
2022/03/02 08:49:48;;;;;;;32.40;19.33;;;11.60;99.90;;;;;;5031605;28;20215;-77
2022/03/02 08:52:14;;;;;;;34.60;19.97;;;10.80;99.90;;;;;;5033129;28;20273;-77
2022/03/02 08:54:47;;;;;;;36.20;20.53;;;11.00;99.90;;;;;;5048553;28;20207;-78
2022/03/02 08:57:15;;;;;;;34.43;19.47;;;10.20;99.90;;;;;;5041055;28;20549;-77
2022/03/02 08:59:41;;;;;;;32.40;19.97;;;10.00;99.90;;;;;;5048878;28;20211;-77
2022/03/02 09:02:08;;;;;;;35.07;20.60;;;10.10;99.90;;;;;;5043627;28;20636;-77
2022/03/02 09:04:37;;;;;;;31.53;18.97;;;10.00;99.90;;;;;;5041947;28;20703;-77
2022/03/02 09:07:06;;;;;;;31.83;20.50;;;9.70;99.90;;;;;;5045451;28;20208;-76
2022/03/02 09:09:32;;;;;;;33.33;21.00;;;9.10;99.90;;;;;;5040123;28;20293;-76
2022/03/02 09:11:57;;;;;;;36.60;19.73;;;8.90;99.90;;;;;;5036522;28;20642;-75
2022/03/02 09:14:24;;;;;;;36.03;19.80;;;9.50;99.90;;;;;;5041468;28;20266;-76
2022/03/02 09:16:51;;;;;;;36.37;21.23;;;9.80;99.90;;;;;;5039099;28;20199;-76
2022/03/02 09:19:17;;;;;;;32.53;18.90;;;9.70;99.90;;;;;;5046390;28;20207;-75
2022/03/02 09:21:46;;;;;;;35.13;19.37;;;9.50;99.90;;;;;;5031277;28;20208;-76
2022/03/02 09:24:13;;;;;;;31.93;18.83;;;9.30;99.90;;;;;;5046239;28;20200;-76
2022/03/02 09:26:39;;;;;;;30.03;18.27;;;9.40;99.90;;;;;;5039942;28;20204;-76
2022/03/02 09:29:06;;;;;;;31.23;18.40;;;9.30;99.90;;;;;;5038405;28;20192;-75
2022/03/02 09:31:36;;;;;;;30.80;18.63;;;8.40;99.90;;;;;;5031446;28;20218;-75
2022/03/02 09:34:05;;;;;;;32.27;19.00;;;8.40;99.90;;;;;;5036902;28;20216;-75
2022/03/02 09:36:36;;;;;;;28.97;17.07;;;8.00;99.90;;;;;;5033046;28;20208;-76
2022/03/02 09:39:05;;;;;;;29.23;17.03;;;8.20;99.90;;;;;;5032130;28;20207;-76
2022/03/02 09:41:54;;;;;;;32.67;16.53;;;7.90;99.90;;;;;;5043365;28;20301;-76
2022/03/02 09:44:25;;;;;;;28.90;15.97;;;8.00;99.90;;;;;;5034905;28;20216;-77
2022/03/02 09:46:57;;;;;;;25.87;15.03;;;7.90;99.90;;;;;;5035430;28;20168;-76
2022/03/02 09:49:27;;;;;;;29.80;15.07;;;7.80;99.90;;;;;;5034192;28;20672;-76
2022/03/02 09:52:04;;;;;;;23.37;13.90;;;8.10;99.90;;;;;;5034361;28;20215;-76
2022/03/02 09:54:36;;;;;;;27.67;16.20;;;7.40;99.90;;;;;;5052424;28;20210;-76
2022/03/02 09:57:05;;;;;;;27.83;15.87;;;7.50;99.90;;;;;;5048760;28;20247;-76
2022/03/02 09:59:38;;;;;;;26.20;15.07;;;7.20;99.90;;;;;;5033461;28;20588;-76
2022/03/02 10:02:07;;;;;;;27.77;14.33;;;7.40;99.90;;;;;;5040388;28;20179;-76
2022/03/02 10:04:36;;;;;;;26.97;15.43;;;7.70;99.90;;;;;;5052365;28;20267;-76
2022/03/02 10:10:03;;;;;;;22.90;14.43;;;8.00;99.90;;;;;;5037873;28;20223;-76
2022/03/02 10:12:31;;;;;;;23.37;13.90;;;7.60;99.90;;;;;;5045167;28;20212;-75
2022/03/02 10:14:57;;;;;;;25.13;13.57;;;7.40;99.90;;;;;;5043149;28;20196;-76
2022/03/02 10:17:26;;;;;;;27.50;14.47;;;7.50;99.90;;;;;;5046699;28;20203;-75
2022/03/02 10:19:54;;;;;;;23.43;14.50;;;7.50;99.90;;;;;;5041247;28;20200;-76
2022/03/02 10:22:47;;;;;;;26.43;14.43;;;7.60;99.90;;;;;;5034269;28;20209;-76
2022/03/02 10:25:15;;;;;;;24.63;15.17;;;8.00;99.90;;;;;;5034530;28;20208;-75
2022/03/02 10:27:59;;;;;;;25.17;14.53;;;8.20;99.90;;;;;;5052956;28;20215;-76
2022/03/02 10:30:30;;;;;;;23.13;12.83;;;7.90;99.90;;;;;;5045854;28;20299;-75
2022/03/02 10:33:16;;;;;;;28.73;15.07;;;8.10;99.90;;;;;;5047820;28;20216;-77
2022/03/02 10:35:54;;;;;;;24.97;14.17;;;8.40;99.90;;;;;;5037282;28;20211;-76
2022/03/02 10:38:38;;;;;;;23.23;15.07;;;8.70;99.90;;;;;;5046168;28;20184;-77
2022/03/02 10:41:07;;;;;;;21.40;13.93;;;8.70;99.90;;;;;;5033727;28;20264;-77
2022/03/02 10:43:48;;;;;;;21.77;13.43;;;8.50;99.90;;;;;;5034476;28;20196;-77
2022/03/02 10:46:18;;;;;;;21.27;13.17;;;8.40;99.90;;;;;;5043644;28;20294;-77
2022/03/02 10:49:13;;;;;;;18.27;11.93;;;9.10;99.90;;;;;;5049734;28;20201;-77
2022/03/02 10:51:40;;;;;;;20.47;11.77;;;9.30;99.90;;;;;;5043709;28;20212;-77
2022/03/02 10:54:08;;;;;;;19.20;12.13;;;8.90;99.90;;;;;;5053760;28;20208;-77
2022/03/02 10:56:39;;;;;;;17.93;10.93;;;8.70;99.90;;;;;;5051623;28;20218;-77
2022/03/02 10:59:11;;;;;;;22.20;12.60;;;8.90;99.90;;;;;;5040656;28;20227;-77
2022/03/02 11:01:37;;;;;;;21.33;11.60;;;8.40;99.90;;;;;;5035005;28;20168;-77
2022/03/02 11:04:05;;;;;;;23.27;12.67;;;8.70;99.90;;;;;;5033622;28;20204;-76
2022/03/02 11:06:32;;;;;;;21.73;12.23;;;8.90;99.90;;;;;;5033292;28;20228;-77
2022/03/02 11:09:00;;;;;;;26.73;12.23;;;8.90;99.90;;;;;;5037971;28;20204;-75
2022/03/02 11:11:26;;;;;;;18.87;11.47;;;8.30;99.90;;;;;;5046571;28;20215;-75
2022/03/02 11:13:54;;;;;;;26.40;12.27;;;7.90;99.90;;;;;;5053429;28;20664;-74
2022/03/02 11:16:22;;;;;;;23.83;12.83;;;7.80;99.90;;;;;;5043955;28;20212;-75
2022/03/02 11:18:50;;;;;;;24.37;13.57;;;7.70;99.90;;;;;;5043380;28;20206;-75
2022/03/02 11:21:28;;;;;;;25.50;12.80;;;7.90;99.90;;;;;;5037855;28;20692;-74
2022/03/02 11:24:01;;;;;;;24.47;12.80;;;7.90;99.90;;;;;;5033641;28;20218;-76
2022/03/02 11:26:30;;;;;;;22.57;11.17;;;7.80;99.90;;;;;;5034921;28;20208;-76
2022/03/02 11:29:10;;;;;;;24.30;12.47;;;7.80;99.90;;;;;;5038740;28;20208;-76
2022/03/02 11:31:42;;;;;;;24.87;14.07;;;7.70;99.90;;;;;;5050384;28;20208;-77
2022/03/02 11:34:26;;;;;;;27.03;14.73;;;7.70;99.90;;;;;;5053647;28;20239;-76
2022/03/02 11:37:01;;;;;;;20.20;12.63;;;7.90;99.90;;;;;;5040874;28;20204;-76
2022/03/02 11:39:28;;;;;;;34.33;16.77;;;8.20;99.90;;;;;;5049430;28;20214;-76
2022/03/02 11:42:00;;;;;;;23.87;14.00;;;8.00;99.90;;;;;;5051727;28;20212;-76
2022/03/02 11:44:43;;;;;;;22.33;12.70;;;8.10;99.90;;;;;;5043232;28;20248;-75
2022/03/02 11:47:11;;;;;;;24.57;13.97;;;8.10;99.90;;;;;;5044700;28;20549;-76
2022/03/02 11:49:39;;;;;;;23.03;12.20;;;7.90;99.90;;;;;;5036021;28;20258;-76
2022/03/02 11:52:06;;;;;;;18.33;11.97;;;8.10;99.90;;;;;;5037823;28;20215;-76
2022/03/02 11:54:44;;;;;;;22.33;13.60;;;8.50;99.90;;;;;;5042519;28;20207;-76
2022/03/02 11:57:09;;;;;;;22.47;13.50;;;8.40;99.90;;;;;;5044750;28;20341;-76
2022/03/02 11:59:38;;;;;;;19.83;11.93;;;8.50;99.90;;;;;;5035482;28;20263;-76
2022/03/02 12:02:21;;;;;;;21.60;12.07;;;8.70;99.90;;;;;;5046081;28;20180;-76
2022/03/02 12:04:57;;;;;;;26.67;14.30;;;8.70;99.90;;;;;;5044768;28;20172;-76
2022/03/02 12:07:23;;;;;;;26.37;14.70;;;8.80;99.90;;;;;;5051387;28;20203;-74
2022/03/02 12:09:48;;;;;;;28.73;14.30;;;9.00;99.90;;;;;;5051288;28;20222;-74
2022/03/02 12:12:16;;;;;;;23.53;13.93;;;9.10;99.90;;;;;;5036644;28;20212;-76
2022/03/02 12:15:01;;;;;;;25.70;14.37;;;9.00;99.90;;;;;;5036022;28;20548;-76
2022/03/02 12:17:33;;;;;;;26.70;14.60;;;9.10;99.90;;;;;;5043220;28;20634;-76
2022/03/02 12:20:03;;;;;;;29.30;14.77;;;9.50;99.90;;;;;;5032124;28;20195;-75
2022/03/02 12:22:31;;;;;;;24.53;13.43;;;9.70;99.90;;;;;;5049213;28;20218;-76
2022/03/02 12:24:58;;;;;;;24.03;13.43;;;9.80;99.90;;;;;;5042579;28;20212;-75
2022/03/02 12:27:24;;;;;;;24.03;13.93;;;9.70;99.90;;;;;;5046549;28;20220;-75
2022/03/02 12:30:04;;;;;;;21.23;13.07;;;9.60;99.90;;;;;;5045090;28;20261;-75
2022/03/02 12:32:32;;;;;;;24.63;14.17;;;9.70;99.90;;;;;;5036819;28;20219;-76
2022/03/02 12:34:59;;;;;;;20.33;12.97;;;9.80;99.90;;;;;;5047634;28;20180;-75
2022/03/02 12:37:26;;;;;;;22.37;13.73;;;9.70;99.90;;;;;;5045518;28;20762;-75
2022/03/02 12:39:52;;;;;;;23.63;13.70;;;9.60;99.90;;;;;;5038019;28;20212;-75
2022/03/02 12:42:18;;;;;;;22.63;14.03;;;9.60;99.90;;;;;;5045690;28;20208;-75